sensor_id;sensor_type;location;lat;lon;timestamp;temperature;humidity
65770;DHT22;52512;47.650;8.578;2023-04-26T00:02:10;8.10;99.90
65770;DHT22;52512;47.650;8.578;2023-04-26T00:04:37;8.10;99.90
65770;DHT22;52512;47.650;8.578;2023-04-26T00:07:03;8.10;99.90
65770;DHT22;52512;47.650;8.578;2023-04-26T00:09:29;8.10;99.90
65770;DHT22;52512;47.650;8.578;2023-04-26T00:11:55;8.10;99.90
65770;DHT22;52512;47.650;8.578;2023-04-26T00:14:20;8.10;99.90
65770;DHT22;52512;47.650;8.578;2023-04-26T00:16:46;8.00;99.90
65770;DHT22;52512;47.650;8.578;2023-04-26T00:19:12;8.00;99.90
65770;DHT22;52512;47.650;8.578;2023-04-26T00:21:38;8.00;99.90
65770;DHT22;52512;47.650;8.578;2023-04-26T00:24:04;8.00;99.90
65770;DHT22;52512;47.650;8.578;2023-04-26T00:26:30;8.00;99.90
65770;DHT22;52512;47.650;8.578;2023-04-26T00:28:56;7.90;99.90
65770;DHT22;52512;47.650;8.578;2023-04-26T00:31:22;7.90;99.90
65770;DHT22;52512;47.650;8.578;2023-04-26T00:33:48;7.90;99.90
65770;DHT22;52512;47.650;8.578;2023-04-26T00:36:13;7.90;99.90
65770;DHT22;52512;47.650;8.578;2023-04-26T00:38:41;7.90;99.90
65770;DHT22;52512;47.650;8.578;2023-04-26T00:41:06;7.90;99.90
65770;DHT22;52512;47.650;8.578;2023-04-26T00:43:32;7.80;99.90
65770;DHT22;52512;47.650;8.578;2023-04-26T00:45:58;7.80;99.90
65770;DHT22;52512;47.650;8.578;2023-04-26T00:48:23;7.70;99.90
65770;DHT22;52512;47.650;8.578;2023-04-26T00:50:49;7.70;99.90
65770;DHT22;52512;47.650;8.578;2023-04-26T00:53:15;7.60;99.90
65770;DHT22;52512;47.650;8.578;2023-04-26T00:55:42;7.50;99.90
65770;DHT22;52512;47.650;8.578;2023-04-26T00:58:09;7.50;99.90
65770;DHT22;52512;47.650;8.578;2023-04-26T01:00:34;7.50;99.90
65770;DHT22;52512;47.650;8.578;2023-04-26T01:03:00;7.40;99.90
65770;DHT22;52512;47.650;8.578;2023-04-26T01:05:26;7.40;99.90
65770;DHT22;52512;47.650;8.578;2023-04-26T01:07:52;7.40;99.90
65770;DHT22;52512;47.650;8.578;2023-04-26T01:10:18;7.40;99.90
65770;DHT22;52512;47.650;8.578;2023-04-26T01:12:44;7.40;99.90
65770;DHT22;52512;47.650;8.578;2023-04-26T01:15:10;7.40;99.90
65770;DHT22;52512;47.650;8.578;2023-04-26T01:17:36;7.40;99.90
65770;DHT22;52512;47.650;8.578;2023-04-26T01:20:05;7.40;99.90
65770;DHT22;52512;47.650;8.578;2023-04-26T01:22:34;7.40;99.90
65770;DHT22;52512;47.650;8.578;2023-04-26T01:25:01;7.40;99.90
65770;DHT22;52512;47.650;8.578;2023-04-26T01:27:28;7.40;99.90
65770;DHT22;52512;47.650;8.578;2023-04-26T01:29:54;7.40;99.90
65770;DHT22;52512;47.650;8.578;2023-04-26T01:32:19;7.40;99.90
65770;DHT22;52512;47.650;8.578;2023-04-26T01:34:45;7.40;99.90
65770;DHT22;52512;47.650;8.578;2023-04-26T01:37:11;7.30;99.90
65770;DHT22;52512;47.650;8.578;2023-04-26T01:39:37;7.40;99.90
65770;DHT22;52512;47.650;8.578;2023-04-26T01:42:03;7.40;99.90
65770;DHT22;52512;47.650;8.578;2023-04-26T01:44:29;7.40;99.90
65770;DHT22;52512;47.650;8.578;2023-04-26T01:46:55;7.40;99.90
65770;DHT22;52512;47.650;8.578;2023-04-26T01:49:21;7.40;99.90
65770;DHT22;52512;47.650;8.578;2023-04-26T01:51:47;7.40;99.90
65770;DHT22;52512;47.650;8.578;2023-04-26T01:54:12;7.40;99.90
65770;DHT22;52512;47.650;8.578;2023-04-26T01:56:38;7.40;99.90
65770;DHT22;52512;47.650;8.578;2023-04-26T01:59:03;7.40;99.90
65770;DHT22;52512;47.650;8.578;2023-04-26T02:01:29;7.40;99.90
65770;DHT22;52512;47.650;8.578;2023-04-26T02:03:55;7.30;99.90
65770;DHT22;52512;47.650;8.578;2023-04-26T02:06:24;7.30;99.90
65770;DHT22;52512;47.650;8.578;2023-04-26T02:08:51;7.30;99.90
65770;DHT22;52512;47.650;8.578;2023-04-26T02:11:17;7.30;99.90
65770;DHT22;52512;47.650;8.578;2023-04-26T02:13:43;7.30;99.90
65770;DHT22;52512;47.650;8.578;2023-04-26T02:16:08;7.30;99.90
65770;DHT22;52512;47.650;8.578;2023-04-26T02:18:34;7.20;99.90
65770;DHT22;52512;47.650;8.578;2023-04-26T02:21:00;7.20;99.90
65770;DHT22;52512;47.650;8.578;2023-04-26T02:23:25;7.20;99.90
65770;DHT22;52512;47.650;8.578;2023-04-26T02:25:51;7.10;99.90
65770;DHT22;52512;47.650;8.578;2023-04-26T02:28:17;7.10;99.90
65770;DHT22;52512;47.650;8.578;2023-04-26T02:30:42;7.00;99.90
65770;DHT22;52512;47.650;8.578;2023-04-26T02:33:09;7.10;99.90
65770;DHT22;52512;47.650;8.578;2023-04-26T02:35:35;7.00;99.90
65770;DHT22;52512;47.650;8.578;2023-04-26T02:38:04;7.00;99.90
65770;DHT22;52512;47.650;8.578;2023-04-26T02:40:29;6.90;99.90
65770;DHT22;52512;47.650;8.578;2023-04-26T02:42:55;6.90;99.90
65770;DHT22;52512;47.650;8.578;2023-04-26T02:45:21;6.90;99.90
65770;DHT22;52512;47.650;8.578;2023-04-26T02:47:46;6.90;99.90
65770;DHT22;52512;47.650;8.578;2023-04-26T02:50:12;6.90;99.90
65770;DHT22;52512;47.650;8.578;2023-04-26T02:52:38;6.90;99.90
65770;DHT22;52512;47.650;8.578;2023-04-26T02:55:04;6.90;99.90
65770;DHT22;52512;47.650;8.578;2023-04-26T02:57:31;6.90;99.90
65770;DHT22;52512;47.650;8.578;2023-04-26T02:59:57;6.90;99.90
65770;DHT22;52512;47.650;8.578;2023-04-26T03:02:22;6.90;99.90
65770;DHT22;52512;47.650;8.578;2023-04-26T03:04:48;6.90;99.90
65770;DHT22;52512;47.650;8.578;2023-04-26T03:07:14;6.90;99.90
65770;DHT22;52512;47.650;8.578;2023-04-26T03:09:40;6.80;99.90
65770;DHT22;52512;47.650;8.578;2023-04-26T03:12:06;6.80;99.90
65770;DHT22;52512;47.650;8.578;2023-04-26T03:14:32;6.80;99.90
65770;DHT22;52512;47.650;8.578;2023-04-26T03:17:01;6.80;99.90
65770;DHT22;52512;47.650;8.578;2023-04-26T03:19:27;6.80;99.90
65770;DHT22;52512;47.650;8.578;2023-04-26T03:21:53;6.80;99.90
65770;DHT22;52512;47.650;8.578;2023-04-26T03:24:19;6.80;99.90
65770;DHT22;52512;47.650;8.578;2023-04-26T03:26:45;6.70;99.90
65770;DHT22;52512;47.650;8.578;2023-04-26T03:29:10;6.70;99.90
65770;DHT22;52512;47.650;8.578;2023-04-26T03:31:37;6.70;99.90
65770;DHT22;52512;47.650;8.578;2023-04-26T03:34:03;6.70;99.90
65770;DHT22;52512;47.650;8.578;2023-04-26T03:36:32;6.70;99.90
65770;DHT22;52512;47.650;8.578;2023-04-26T03:38:59;6.60;99.90
65770;DHT22;52512;47.650;8.578;2023-04-26T03:41:25;6.60;99.90
65770;DHT22;52512;47.650;8.578;2023-04-26T03:43:51;6.60;99.90
65770;DHT22;52512;47.650;8.578;2023-04-26T03:46:17;6.70;99.90
65770;DHT22;52512;47.650;8.578;2023-04-26T03:48:43;6.60;99.90
65770;DHT22;52512;47.650;8.578;2023-04-26T03:51:08;6.60;99.90
65770;DHT22;52512;47.650;8.578;2023-04-26T03:53:34;6.60;99.90
65770;DHT22;52512;47.650;8.578;2023-04-26T03:56:00;6.60;99.90
65770;DHT22;52512;47.650;8.578;2023-04-26T03:58:26;6.50;99.90
65770;DHT22;52512;47.650;8.578;2023-04-26T04:00:55;6.60;99.90
65770;DHT22;52512;47.650;8.578;2023-04-26T04:03:20;6.50;99.90
65770;DHT22;52512;47.650;8.578;2023-04-26T04:05:46;6.50;99.90
65770;DHT22;52512;47.650;8.578;2023-04-26T04:08:12;6.50;99.90
65770;DHT22;52512;47.650;8.578;2023-04-26T04:10:37;6.60;99.90
65770;DHT22;52512;47.650;8.578;2023-04-26T04:13:03;6.60;99.90
65770;DHT22;52512;47.650;8.578;2023-04-26T04:15:29;6.60;99.90
65770;DHT22;52512;47.650;8.578;2023-04-26T04:17:55;6.50;99.90
65770;DHT22;52512;47.650;8.578;2023-04-26T04:20:21;6.60;99.90
65770;DHT22;52512;47.650;8.578;2023-04-26T04:22:47;6.60;99.90
65770;DHT22;52512;47.650;8.578;2023-04-26T04:25:12;6.60;99.90
65770;DHT22;52512;47.650;8.578;2023-04-26T04:27:39;6.60;99.90
65770;DHT22;52512;47.650;8.578;2023-04-26T04:30:08;6.50;99.90
65770;DHT22;52512;47.650;8.578;2023-04-26T04:32:35;6.60;99.90
65770;DHT22;52512;47.650;8.578;2023-04-26T04:35:01;6.60;99.90
65770;DHT22;52512;47.650;8.578;2023-04-26T04:37:27;6.60;99.90
65770;DHT22;52512;47.650;8.578;2023-04-26T04:39:54;6.60;99.90
65770;DHT22;52512;47.650;8.578;2023-04-26T04:42:20;6.60;99.90
65770;DHT22;52512;47.650;8.578;2023-04-26T04:44:46;6.60;99.90
65770;DHT22;52512;47.650;8.578;2023-04-26T04:47:12;6.60;99.90
65770;DHT22;52512;47.650;8.578;2023-04-26T04:49:38;6.70;99.90
65770;DHT22;52512;47.650;8.578;2023-04-26T04:52:04;6.70;99.90
65770;DHT22;52512;47.650;8.578;2023-04-26T04:54:31;6.70;99.90
65770;DHT22;52512;47.650;8.578;2023-04-26T04:56:57;6.60;99.90
65770;DHT22;52512;47.650;8.578;2023-04-26T04:59:23;6.60;99.90
65770;DHT22;52512;47.650;8.578;2023-04-26T05:01:49;6.60;99.90
65770;DHT22;52512;47.650;8.578;2023-04-26T05:04:15;6.60;99.90
65770;DHT22;52512;47.650;8.578;2023-04-26T05:06:41;6.60;99.90
65770;DHT22;52512;47.650;8.578;2023-04-26T05:09:07;6.70;99.90
65770;DHT22;52512;47.650;8.578;2023-04-26T05:11:33;6.60;99.90
65770;DHT22;52512;47.650;8.578;2023-04-26T05:13:59;6.60;99.90
65770;DHT22;52512;47.650;8.578;2023-04-26T05:16:25;6.60;99.90
65770;DHT22;52512;47.650;8.578;2023-04-26T05:18:50;6.60;99.90
65770;DHT22;52512;47.650;8.578;2023-04-26T05:21:16;6.60;99.90
65770;DHT22;52512;47.650;8.578;2023-04-26T05:23:42;6.60;99.90
65770;DHT22;52512;47.650;8.578;2023-04-26T05:26:13;6.60;99.90
65770;DHT22;52512;47.650;8.578;2023-04-26T05:28:39;6.60;99.90
65770;DHT22;52512;47.650;8.578;2023-04-26T05:31:05;6.60;99.90
65770;DHT22;52512;47.650;8.578;2023-04-26T05:33:31;6.60;99.90
65770;DHT22;52512;47.650;8.578;2023-04-26T05:35:56;6.60;99.90
65770;DHT22;52512;47.650;8.578;2023-04-26T05:38:23;6.60;99.90
65770;DHT22;52512;47.650;8.578;2023-04-26T05:40:49;6.60;99.90
65770;DHT22;52512;47.650;8.578;2023-04-26T05:43:15;6.60;99.90
65770;DHT22;52512;47.650;8.578;2023-04-26T05:45:50;6.80;99.90
65770;DHT22;52512;47.650;8.578;2023-04-26T05:48:16;6.60;99.90
65770;DHT22;52512;47.650;8.578;2023-04-26T05:50:43;6.60;99.90
65770;DHT22;52512;47.650;8.578;2023-04-26T05:53:09;6.70;99.90
65770;DHT22;52512;47.650;8.578;2023-04-26T05:55:36;6.60;99.90
65770;DHT22;52512;47.650;8.578;2023-04-26T05:58:02;6.70;99.90
65770;DHT22;52512;47.650;8.578;2023-04-26T06:00:27;6.70;99.90
65770;DHT22;52512;47.650;8.578;2023-04-26T06:02:53;6.70;99.90
65770;DHT22;52512;47.650;8.578;2023-04-26T06:05:19;6.70;99.90
65770;DHT22;52512;47.650;8.578;2023-04-26T06:07:45;6.80;99.90
65770;DHT22;52512;47.650;8.578;2023-04-26T06:10:10;6.80;99.90
65770;DHT22;52512;47.650;8.578;2023-04-26T06:12:37;6.80;99.90
65770;DHT22;52512;47.650;8.578;2023-04-26T06:15:04;6.70;99.90
65770;DHT22;52512;47.650;8.578;2023-04-26T06:17:29;6.80;99.90
65770;DHT22;52512;47.650;8.578;2023-04-26T06:19:56;6.70;99.90
65770;DHT22;52512;47.650;8.578;2023-04-26T06:22:24;6.80;99.90
65770;DHT22;52512;47.650;8.578;2023-04-26T06:24:51;6.80;99.90
65770;DHT22;52512;47.650;8.578;2023-04-26T06:27:16;6.80;99.90
65770;DHT22;52512;47.650;8.578;2023-04-26T06:29:42;6.80;99.90
65770;DHT22;52512;47.650;8.578;2023-04-26T06:32:09;6.80;99.90
65770;DHT22;52512;47.650;8.578;2023-04-26T06:34:35;6.80;99.90
65770;DHT22;52512;47.650;8.578;2023-04-26T06:37:03;6.90;99.90
65770;DHT22;52512;47.650;8.578;2023-04-26T06:39:28;6.90;99.90
65770;DHT22;52512;47.650;8.578;2023-04-26T06:41:54;6.90;99.90
65770;DHT22;52512;47.650;8.578;2023-04-26T06:44:20;6.90;99.90
65770;DHT22;52512;47.650;8.578;2023-04-26T06:46:46;6.90;99.90
65770;DHT22;52512;47.650;8.578;2023-04-26T06:49:12;7.00;99.90
65770;DHT22;52512;47.650;8.578;2023-04-26T06:51:37;6.90;99.90
65770;DHT22;52512;47.650;8.578;2023-04-26T06:54:03;7.00;99.90
65770;DHT22;52512;47.650;8.578;2023-04-26T06:56:29;7.00;99.90
65770;DHT22;52512;47.650;8.578;2023-04-26T07:01:25;7.00;99.90
65770;DHT22;52512;47.650;8.578;2023-04-26T07:03:55;7.10;99.90
65770;DHT22;52512;47.650;8.578;2023-04-26T07:06:25;7.10;99.90
65770;DHT22;52512;47.650;8.578;2023-04-26T07:08:52;7.10;99.90
65770;DHT22;52512;47.650;8.578;2023-04-26T07:11:18;7.10;99.90
65770;DHT22;52512;47.650;8.578;2023-04-26T07:13:44;7.20;99.90
65770;DHT22;52512;47.650;8.578;2023-04-26T07:16:16;7.20;99.90
65770;DHT22;52512;47.650;8.578;2023-04-26T07:18:43;7.20;99.90
65770;DHT22;52512;47.650;8.578;2023-04-26T07:21:09;7.30;99.90
65770;DHT22;52512;47.650;8.578;2023-04-26T07:23:35;7.30;99.90
65770;DHT22;52512;47.650;8.578;2023-04-26T07:26:01;7.40;99.90
65770;DHT22;52512;47.650;8.578;2023-04-26T07:28:29;7.40;99.90
65770;DHT22;52512;47.650;8.578;2023-04-26T07:30:54;7.40;99.90
65770;DHT22;52512;47.650;8.578;2023-04-26T07:33:20;7.50;99.90
65770;DHT22;52512;47.650;8.578;2023-04-26T07:35:53;7.50;99.90
65770;DHT22;52512;47.650;8.578;2023-04-26T07:38:20;7.60;99.90
65770;DHT22;52512;47.650;8.578;2023-04-26T07:40:45;7.70;99.90
65770;DHT22;52512;47.650;8.578;2023-04-26T07:43:11;7.70;99.90
65770;DHT22;52512;47.650;8.578;2023-04-26T07:45:37;7.70;99.90
65770;DHT22;52512;47.650;8.578;2023-04-26T07:48:03;7.80;99.90
65770;DHT22;52512;47.650;8.578;2023-04-26T07:50:29;7.90;99.90
65770;DHT22;52512;47.650;8.578;2023-04-26T07:52:55;7.90;99.90
65770;DHT22;52512;47.650;8.578;2023-04-26T07:55:20;7.90;99.90
65770;DHT22;52512;47.650;8.578;2023-04-26T07:57:46;8.00;99.90
65770;DHT22;52512;47.650;8.578;2023-04-26T08:00:12;8.00;99.90
65770;DHT22;52512;47.650;8.578;2023-04-26T08:02:38;8.10;99.90
65770;DHT22;52512;47.650;8.578;2023-04-26T08:05:04;8.10;99.90
65770;DHT22;52512;47.650;8.578;2023-04-26T08:07:30;8.20;99.90
65770;DHT22;52512;47.650;8.578;2023-04-26T08:09:55;8.20;99.90
65770;DHT22;52512;47.650;8.578;2023-04-26T08:12:21;8.20;99.90
65770;DHT22;52512;47.650;8.578;2023-04-26T08:14:47;8.30;99.90
65770;DHT22;52512;47.650;8.578;2023-04-26T08:17:12;8.30;99.90
65770;DHT22;52512;47.650;8.578;2023-04-26T08:19:38;8.30;99.90
65770;DHT22;52512;47.650;8.578;2023-04-26T08:22:04;8.40;99.90
65770;DHT22;52512;47.650;8.578;2023-04-26T08:24:30;8.40;99.90
65770;DHT22;52512;47.650;8.578;2023-04-26T08:26:56;8.50;99.90
65770;DHT22;52512;47.650;8.578;2023-04-26T08:29:23;8.60;99.90
65770;DHT22;52512;47.650;8.578;2023-04-26T08:31:49;8.60;99.90
65770;DHT22;52512;47.650;8.578;2023-04-26T08:34:15;8.60;99.90
65770;DHT22;52512;47.650;8.578;2023-04-26T08:36:40;8.60;99.90
65770;DHT22;52512;47.650;8.578;2023-04-26T08:39:07;8.70;99.90
65770;DHT22;52512;47.650;8.578;2023-04-26T08:41:36;8.80;99.90
65770;DHT22;52512;47.650;8.578;2023-04-26T08:44:04;8.80;99.90
65770;DHT22;52512;47.650;8.578;2023-04-26T08:46:46;8.80;99.90
65770;DHT22;52512;47.650;8.578;2023-04-26T08:49:21;8.90;99.90
65770;DHT22;52512;47.650;8.578;2023-04-26T08:51:47;8.90;99.90
65770;DHT22;52512;47.650;8.578;2023-04-26T08:54:14;9.00;99.90
65770;DHT22;52512;47.650;8.578;2023-04-26T08:56:43;9.10;99.90
65770;DHT22;52512;47.650;8.578;2023-04-26T08:59:09;9.20;99.90
65770;DHT22;52512;47.650;8.578;2023-04-26T09:01:38;9.20;99.90
65770;DHT22;52512;47.650;8.578;2023-04-26T09:04:06;9.30;99.90
65770;DHT22;52512;47.650;8.578;2023-04-26T09:06:32;9.40;99.90
65770;DHT22;52512;47.650;8.578;2023-04-26T09:09:03;9.40;99.90
65770;DHT22;52512;47.650;8.578;2023-04-26T09:11:29;9.40;99.90
65770;DHT22;52512;47.650;8.578;2023-04-26T09:13:55;9.50;99.90
65770;DHT22;52512;47.650;8.578;2023-04-26T09:16:42;9.50;99.90
65770;DHT22;52512;47.650;8.578;2023-04-26T09:19:07;9.60;99.90
65770;DHT22;52512;47.650;8.578;2023-04-26T09:21:35;9.70;99.90
65770;DHT22;52512;47.650;8.578;2023-04-26T09:24:05;9.70;99.90
65770;DHT22;52512;47.650;8.578;2023-04-26T09:26:31;9.70;99.90
65770;DHT22;52512;47.650;8.578;2023-04-26T09:29:14;9.80;99.90
65770;DHT22;52512;47.650;8.578;2023-04-26T09:31:46;10.00;99.90
65770;DHT22;52512;47.650;8.578;2023-04-26T09:34:13;10.00;99.90
65770;DHT22;52512;47.650;8.578;2023-04-26T09:36:49;10.10;99.90
65770;DHT22;52512;47.650;8.578;2023-04-26T09:41:54;10.30;99.90
65770;DHT22;52512;47.650;8.578;2023-04-26T09:44:21;10.60;99.90
65770;DHT22;52512;47.650;8.578;2023-04-26T09:47:08;10.80;99.90
65770;DHT22;52512;47.650;8.578;2023-04-26T09:49:48;10.90;99.90
65770;DHT22;52512;47.650;8.578;2023-04-26T09:52:16;11.00;99.90
65770;DHT22;52512;47.650;8.578;2023-04-26T09:57:09;11.30;99.90
65770;DHT22;52512;47.650;8.578;2023-04-26T09:59:46;11.40;99.90
65770;DHT22;52512;47.650;8.578;2023-04-26T10:04:44;11.50;99.90
65770;DHT22;52512;47.650;8.578;2023-04-26T10:07:14;11.60;99.90
65770;DHT22;52512;47.650;8.578;2023-04-26T10:09:41;11.70;99.90
65770;DHT22;52512;47.650;8.578;2023-04-26T10:12:10;11.80;99.90
65770;DHT22;52512;47.650;8.578;2023-04-26T10:14:37;11.90;99.90
65770;DHT22;52512;47.650;8.578;2023-04-26T10:17:04;12.00;99.90
65770;DHT22;52512;47.650;8.578;2023-04-26T10:19:31;12.10;99.90
65770;DHT22;52512;47.650;8.578;2023-04-26T10:22:04;12.10;99.90
65770;DHT22;52512;47.650;8.578;2023-04-26T10:24:30;12.20;99.90
65770;DHT22;52512;47.650;8.578;2023-04-26T10:26:56;12.20;99.90
65770;DHT22;52512;47.650;8.578;2023-04-26T10:29:23;12.30;99.90
65770;DHT22;52512;47.650;8.578;2023-04-26T10:34:32;12.40;99.90
65770;DHT22;52512;47.650;8.578;2023-04-26T10:37:12;12.50;99.90
65770;DHT22;52512;47.650;8.578;2023-04-26T10:39:39;12.50;99.90
65770;DHT22;52512;47.650;8.578;2023-04-26T10:42:19;12.60;99.90
65770;DHT22;52512;47.650;8.578;2023-04-26T10:44:55;12.60;99.90
65770;DHT22;52512;47.650;8.578;2023-04-26T10:47:24;12.80;99.90
65770;DHT22;52512;47.650;8.578;2023-04-26T10:49:50;12.90;99.90
65770;DHT22;52512;47.650;8.578;2023-04-26T10:52:17;13.00;99.90
65770;DHT22;52512;47.650;8.578;2023-04-26T10:54:55;13.20;99.90
65770;DHT22;52512;47.650;8.578;2023-04-26T10:57:22;13.30;99.90
65770;DHT22;52512;47.650;8.578;2023-04-26T11:05:36;13.50;99.90
65770;DHT22;52512;47.650;8.578;2023-04-26T11:08:27;13.60;99.90
65770;DHT22;52512;47.650;8.578;2023-04-26T11:13:22;13.80;99.90
65770;DHT22;52512;47.650;8.578;2023-04-26T11:15:52;13.80;99.90
65770;DHT22;52512;47.650;8.578;2023-04-26T11:18:19;13.90;99.90
65770;DHT22;52512;47.650;8.578;2023-04-26T11:20:48;14.00;99.90
65770;DHT22;52512;47.650;8.578;2023-04-26T11:23:14;14.00;99.90
65770;DHT22;52512;47.650;8.578;2023-04-26T11:25:40;14.10;99.90
65770;DHT22;52512;47.650;8.578;2023-04-26T11:28:06;14.20;99.90
65770;DHT22;52512;47.650;8.578;2023-04-26T11:30:32;14.20;99.90
65770;DHT22;52512;47.650;8.578;2023-04-26T11:32:59;14.30;99.90
65770;DHT22;52512;47.650;8.578;2023-04-26T11:35:25;14.30;99.90
65770;DHT22;52512;47.650;8.578;2023-04-26T11:37:51;14.40;99.90
65770;DHT22;52512;47.650;8.578;2023-04-26T11:40:17;14.40;99.90
65770;DHT22;52512;47.650;8.578;2023-04-26T11:42:43;14.40;99.90
65770;DHT22;52512;47.650;8.578;2023-04-26T11:45:10;14.40;99.60
65770;DHT22;52512;47.650;8.578;2023-04-26T11:47:36;14.50;99.10
65770;DHT22;52512;47.650;8.578;2023-04-26T11:50:02;14.50;98.30
65770;DHT22;52512;47.650;8.578;2023-04-26T11:52:29;14.40;98.30
65770;DHT22;52512;47.650;8.578;2023-04-26T11:55:04;14.50;99.10
65770;DHT22;52512;47.650;8.578;2023-04-26T11:57:33;14.50;99.50
65770;DHT22;52512;47.650;8.578;2023-04-26T12:00:14;14.60;99.60
65770;DHT22;52512;47.650;8.578;2023-04-26T12:02:47;14.60;99.90
65770;DHT22;52512;47.650;8.578;2023-04-26T12:05:23;14.60;99.90
65770;DHT22;52512;47.650;8.578;2023-04-26T12:07:50;14.60;99.90
65770;DHT22;52512;47.650;8.578;2023-04-26T12:10:19;14.70;99.70
65770;DHT22;52512;47.650;8.578;2023-04-26T12:12:51;14.60;99.30
65770;DHT22;52512;47.650;8.578;2023-04-26T12:15:18;14.60;98.80
65770;DHT22;52512;47.650;8.578;2023-04-26T12:17:58;14.60;98.70
65770;DHT22;52512;47.650;8.578;2023-04-26T12:20:35;14.70;98.90
65770;DHT22;52512;47.650;8.578;2023-04-26T12:23:06;14.70;99.20
65770;DHT22;52512;47.650;8.578;2023-04-26T12:25:34;14.80;98.40
65770;DHT22;52512;47.650;8.578;2023-04-26T12:28:02;14.70;96.90
65770;DHT22;52512;47.650;8.578;2023-04-26T12:30:28;14.80;96.50
65770;DHT22;52512;47.650;8.578;2023-04-26T12:32:54;14.80;97.80
65770;DHT22;52512;47.650;8.578;2023-04-26T12:35:22;14.80;98.60
65770;DHT22;52512;47.650;8.578;2023-04-26T12:37:48;14.80;97.60
65770;DHT22;52512;47.650;8.578;2023-04-26T12:40:15;14.90;97.40
65770;DHT22;52512;47.650;8.578;2023-04-26T12:42:41;15.00;97.60
65770;DHT22;52512;47.650;8.578;2023-04-26T12:45:07;15.00;96.90
65770;DHT22;52512;47.650;8.578;2023-04-26T12:47:33;14.90;94.70
65770;DHT22;52512;47.650;8.578;2023-04-26T12:49:59;14.80;94.20
65770;DHT22;52512;47.650;8.578;2023-04-26T12:52:26;14.70;94.10
65770;DHT22;52512;47.650;8.578;2023-04-26T12:54:52;14.70;93.50
65770;DHT22;52512;47.650;8.578;2023-04-26T12:57:19;14.80;94.00
65770;DHT22;52512;47.650;8.578;2023-04-26T12:59:45;14.90;95.00
65770;DHT22;52512;47.650;8.578;2023-04-26T13:02:11;14.90;94.20
65770;DHT22;52512;47.650;8.578;2023-04-26T13:04:37;15.00;93.40
65770;DHT22;52512;47.650;8.578;2023-04-26T13:07:03;14.90;92.00
65770;DHT22;52512;47.650;8.578;2023-04-26T13:09:32;15.00;91.60
65770;DHT22;52512;47.650;8.578;2023-04-26T13:11:58;15.00;91.30
65770;DHT22;52512;47.650;8.578;2023-04-26T13:14:23;15.00;91.20
65770;DHT22;52512;47.650;8.578;2023-04-26T13:16:49;15.00;90.80
65770;DHT22;52512;47.650;8.578;2023-04-26T13:19:16;15.00;91.70
65770;DHT22;52512;47.650;8.578;2023-04-26T13:21:42;15.10;91.10
65770;DHT22;52512;47.650;8.578;2023-04-26T13:24:08;15.00;90.40
65770;DHT22;52512;47.650;8.578;2023-04-26T13:26:33;15.10;91.00
65770;DHT22;52512;47.650;8.578;2023-04-26T13:29:00;15.10;90.20
65770;DHT22;52512;47.650;8.578;2023-04-26T13:31:26;15.30;91.40
65770;DHT22;52512;47.650;8.578;2023-04-26T13:33:52;15.40;91.60
65770;DHT22;52512;47.650;8.578;2023-04-26T13:36:17;15.60;90.90
65770;DHT22;52512;47.650;8.578;2023-04-26T13:38:43;15.70;91.10
65770;DHT22;52512;47.650;8.578;2023-04-26T13:41:09;15.80;91.00
65770;DHT22;52512;47.650;8.578;2023-04-26T13:43:35;15.80;90.90
65770;DHT22;52512;47.650;8.578;2023-04-26T13:46:01;15.80;90.40
65770;DHT22;52512;47.650;8.578;2023-04-26T13:48:27;15.80;86.90
65770;DHT22;52512;47.650;8.578;2023-04-26T13:50:53;15.60;84.80
65770;DHT22;52512;47.650;8.578;2023-04-26T13:53:21;15.60;83.90
65770;DHT22;52512;47.650;8.578;2023-04-26T13:55:47;15.50;81.80
65770;DHT22;52512;47.650;8.578;2023-04-26T13:58:13;15.60;81.20
65770;DHT22;52512;47.650;8.578;2023-04-26T14:00:38;15.80;82.70
65770;DHT22;52512;47.650;8.578;2023-04-26T14:03:04;15.70;78.30
65770;DHT22;52512;47.650;8.578;2023-04-26T14:05:30;15.70;78.90
65770;DHT22;52512;47.650;8.578;2023-04-26T14:07:55;15.70;80.80
65770;DHT22;52512;47.650;8.578;2023-04-26T14:10:22;15.80;82.20
65770;DHT22;52512;47.650;8.578;2023-04-26T14:12:47;15.90;82.60
65770;DHT22;52512;47.650;8.578;2023-04-26T14:15:13;15.90;82.40
65770;DHT22;52512;47.650;8.578;2023-04-26T14:17:39;16.00;83.40
65770;DHT22;52512;47.650;8.578;2023-04-26T14:20:06;16.00;84.10
65770;DHT22;52512;47.650;8.578;2023-04-26T14:22:32;16.20;84.70
65770;DHT22;52512;47.650;8.578;2023-04-26T14:24:58;16.30;86.00
65770;DHT22;52512;47.650;8.578;2023-04-26T14:27:24;16.40;86.00
65770;DHT22;52512;47.650;8.578;2023-04-26T14:29:49;16.50;85.20
65770;DHT22;52512;47.650;8.578;2023-04-26T14:32:15;16.50;83.60
65770;DHT22;52512;47.650;8.578;2023-04-26T14:34:41;16.70;84.80
65770;DHT22;52512;47.650;8.578;2023-04-26T14:37:07;16.70;84.90
65770;DHT22;52512;47.650;8.578;2023-04-26T14:39:33;16.90;85.80
65770;DHT22;52512;47.650;8.578;2023-04-26T14:41:59;16.90;84.30
65770;DHT22;52512;47.650;8.578;2023-04-26T14:44:25;16.90;82.00
65770;DHT22;52512;47.650;8.578;2023-04-26T14:46:51;17.00;83.20
65770;DHT22;52512;47.650;8.578;2023-04-26T14:49:18;17.00;83.30
65770;DHT22;52512;47.650;8.578;2023-04-26T14:51:43;17.00;81.80
65770;DHT22;52512;47.650;8.578;2023-04-26T14:54:09;17.00;81.30
65770;DHT22;52512;47.650;8.578;2023-04-26T14:56:35;17.10;83.30
65770;DHT22;52512;47.650;8.578;2023-04-26T14:59:02;17.10;82.20
65770;DHT22;52512;47.650;8.578;2023-04-26T15:01:29;17.20;82.00
65770;DHT22;52512;47.650;8.578;2023-04-26T15:03:55;17.20;81.80
65770;DHT22;52512;47.650;8.578;2023-04-26T15:06:20;17.20;81.10
65770;DHT22;52512;47.650;8.578;2023-04-26T15:08:46;17.20;81.20
65770;DHT22;52512;47.650;8.578;2023-04-26T15:11:12;17.10;80.90
65770;DHT22;52512;47.650;8.578;2023-04-26T15:13:38;17.10;80.00
65770;DHT22;52512;47.650;8.578;2023-04-26T15:16:04;16.90;78.20
65770;DHT22;52512;47.650;8.578;2023-04-26T15:18:30;16.90;79.30
65770;DHT22;52512;47.650;8.578;2023-04-26T15:20:57;16.70;78.80
65770;DHT22;52512;47.650;8.578;2023-04-26T15:23:23;16.70;79.20
65770;DHT22;52512;47.650;8.578;2023-04-26T15:25:48;16.70;79.60
65770;DHT22;52512;47.650;8.578;2023-04-26T15:28:14;16.70;79.40
65770;DHT22;52512;47.650;8.578;2023-04-26T15:30:40;16.70;80.00
65770;DHT22;52512;47.650;8.578;2023-04-26T15:33:05;16.60;78.30
65770;DHT22;52512;47.650;8.578;2023-04-26T15:35:32;16.60;80.70
65770;DHT22;52512;47.650;8.578;2023-04-26T15:37:58;16.60;81.50
65770;DHT22;52512;47.650;8.578;2023-04-26T15:40:23;16.70;81.60
65770;DHT22;52512;47.650;8.578;2023-04-26T15:42:52;16.60;80.50
65770;DHT22;52512;47.650;8.578;2023-04-26T15:45:18;16.60;81.30
65770;DHT22;52512;47.650;8.578;2023-04-26T15:47:44;16.60;81.60
65770;DHT22;52512;47.650;8.578;2023-04-26T15:50:10;16.50;81.40
65770;DHT22;52512;47.650;8.578;2023-04-26T15:52:37;16.50;80.90
65770;DHT22;52512;47.650;8.578;2023-04-26T15:55:03;16.60;81.40
65770;DHT22;52512;47.650;8.578;2023-04-26T15:57:31;16.60;82.90
65770;DHT22;52512;47.650;8.578;2023-04-26T15:59:57;16.50;81.80